createdAt,value
2019-02-27T00:01:49.675Z,8.30
2019-02-27T00:04:16.027Z,7.37
2019-02-27T00:06:47.697Z,6.97
2019-02-27T00:09:13.527Z,6.30
2019-02-27T00:11:45.838Z,7.10
2019-02-27T00:14:12.567Z,6.77
2019-02-27T00:16:41.785Z,6.17
2019-02-27T00:19:10.137Z,7.00
2019-02-27T00:21:38.071Z,7.20
2019-02-27T00:24:05.851Z,8.03
2019-02-27T00:26:36.496Z,6.33
2019-02-27T00:29:04.303Z,6.30
2019-02-27T00:31:32.105Z,7.17
2019-02-27T00:34:00.515Z,7.30
2019-02-27T00:36:29.269Z,6.80
2019-02-27T00:38:59.861Z,6.93
2019-02-27T00:41:27.673Z,7.00
2019-02-27T00:43:55.596Z,7.20
2019-02-27T00:46:24.529Z,7.07
2019-02-27T00:48:52.354Z,7.23
2019-02-27T00:51:20.145Z,7.37
2019-02-27T00:53:47.955Z,6.70
2019-02-27T00:56:17.653Z,7.20
2019-02-27T00:58:45.493Z,6.83
2019-02-27T01:01:14.311Z,7.83
2019-02-27T01:03:42.104Z,7.90
2019-02-27T01:06:12.286Z,7.50
2019-02-27T01:08:41.569Z,7.17
2019-02-27T01:11:12.013Z,8.03
2019-02-27T01:13:40.187Z,6.50
2019-02-27T01:16:10.291Z,6.80
2019-02-27T01:18:38.262Z,6.80
2019-02-27T01:21:11.171Z,7.00
2019-02-27T01:23:44.629Z,6.33
2019-02-27T01:26:12.667Z,6.23
2019-02-27T01:28:44.634Z,6.53
2019-02-27T01:31:11.369Z,6.37
2019-02-27T01:33:42.220Z,5.87
2019-02-27T01:36:10.321Z,5.67
2019-02-27T01:38:41.670Z,5.60
2019-02-27T01:41:11.266Z,5.70
2019-02-27T01:43:42.468Z,6.37
2019-02-27T01:46:13.884Z,6.13
2019-02-27T01:48:43.683Z,5.60
2019-02-27T01:51:14.272Z,5.87
2019-02-27T01:53:42.691Z,6.23
2019-02-27T01:56:11.467Z,5.70
2019-02-27T01:58:44.246Z,5.93
2019-02-27T02:01:12.925Z,5.53
2019-02-27T02:03:47.236Z,5.40
2019-02-27T02:06:16.279Z,5.70
2019-02-27T02:08:48.248Z,6.03
2019-02-27T02:11:19.652Z,5.20
2019-02-27T02:14:34.939Z,5.80
2019-02-27T02:17:45.955Z,5.77
2019-02-27T02:20:53.091Z,6.17
2019-02-27T02:24:03.347Z,5.20
2019-02-27T02:27:13.428Z,5.70
2019-02-27T02:30:49.890Z,5.53
2019-02-27T02:34:13.392Z,5.87
2019-02-27T02:37:25.512Z,6.97
2019-02-27T02:40:55.195Z,5.70
2019-02-27T02:44:06.873Z,5.70
2019-02-27T02:47:21.090Z,6.00
2019-02-27T02:50:38.779Z,5.10
2019-02-27T02:53:49.783Z,5.97
2019-02-27T02:57:44.779Z,6.00
2019-02-27T03:00:43.728Z,5.60
2019-02-27T03:03:43.249Z,6.10
2019-02-27T03:07:16.550Z,5.90
2019-02-27T03:10:30.663Z,5.57
2019-02-27T03:14:01.446Z,6.80
2019-02-27T03:17:17.626Z,5.47
2019-02-27T03:20:26.218Z,6.97
2019-02-27T03:24:27.953Z,5.83
2019-02-27T03:27:32.401Z,5.50
2019-02-27T03:30:51.177Z,5.73
2019-02-27T03:34:26.232Z,6.43
2019-02-27T03:37:40.188Z,6.50
2019-02-27T03:41:34.776Z,6.20
2019-02-27T03:44:45.062Z,5.77
2019-02-27T03:48:03.547Z,6.47
2019-02-27T03:51:37.664Z,5.87
2019-02-27T03:54:44.950Z,5.63
2019-02-27T03:58:02.246Z,7.23
2019-02-27T04:01:30.056Z,8.23
2019-02-27T04:04:53.271Z,7.20
2019-02-27T04:07:46.635Z,8.83
2019-02-27T04:10:15.872Z,7.80
2019-02-27T04:12:51.769Z,7.73
2019-02-27T04:15:23.399Z,7.23
2019-02-27T04:17:53.020Z,8.13
2019-02-27T04:20:31.412Z,7.50
2019-02-27T04:23:03.613Z,7.13
2019-02-27T04:25:35.186Z,6.43
2019-02-27T04:28:06.051Z,6.67
2019-02-27T04:30:41.285Z,7.03
2019-02-27T04:33:12.076Z,6.80
2019-02-27T04:35:41.822Z,6.60
2019-02-27T04:38:21.318Z,6.50
2019-02-27T04:40:53.200Z,5.90
2019-02-27T04:43:23.248Z,6.63
2019-02-27T04:45:57.712Z,6.37
2019-02-27T04:48:37.341Z,6.00
2019-02-27T04:53:40.922Z,6.20
2019-02-27T04:56:14.425Z,6.00
2019-02-27T04:58:48.203Z,6.27
2019-02-27T05:01:27.176Z,6.80
2019-02-27T05:04:02.714Z,6.70
2019-02-27T05:06:37.689Z,6.97
2019-02-27T05:09:12.687Z,6.90
2019-02-27T05:11:57.711Z,6.03
2019-02-27T05:14:35.958Z,5.63
2019-02-27T05:17:07.608Z,5.80
2019-02-27T05:19:42.342Z,6.10
2019-02-27T05:22:26.198Z,6.40
2019-02-27T05:25:00.336Z,6.70
2019-02-27T05:27:33.632Z,5.90
2019-02-27T05:30:12.025Z,6.10
2019-02-27T05:32:43.280Z,5.90
2019-02-27T05:35:37.103Z,6.00
2019-02-27T05:38:21.232Z,6.00
2019-02-27T05:40:59.872Z,6.83
2019-02-27T05:43:33.758Z,5.87
2019-02-27T05:46:10.496Z,7.23
2019-02-27T05:48:50.959Z,5.43
2019-02-27T05:51:29.334Z,6.80
2019-02-27T05:54:08.008Z,6.63
2019-02-27T05:56:53.615Z,6.90
2019-02-27T05:59:29.433Z,6.73
2019-02-27T06:02:02.928Z,6.93
2019-02-27T06:04:42.456Z,6.43
2019-02-27T06:07:35.219Z,6.90
2019-02-27T06:10:08.919Z,6.47
2019-02-27T06:12:45.394Z,6.83
2019-02-27T06:15:21.190Z,7.37
2019-02-27T06:17:58.728Z,6.80
2019-02-27T06:20:41.992Z,7.10
2019-02-27T06:23:16.278Z,6.57
2019-02-27T06:25:50.800Z,7.40
2019-02-27T06:28:23.337Z,6.47
2019-02-27T06:30:59.267Z,6.67
2019-02-27T06:33:52.996Z,6.97
2019-02-27T06:36:25.464Z,6.63
2019-02-27T06:39:01.559Z,6.60
2019-02-27T06:41:35.014Z,6.80
2019-02-27T06:44:07.497Z,6.90
2019-02-27T06:46:38.989Z,6.40
2019-02-27T06:49:10.346Z,5.67
2019-02-27T06:51:41.762Z,6.73
2019-02-27T06:54:13.235Z,7.43
2019-02-27T06:56:44.664Z,6.07
2019-02-27T06:59:18.003Z,6.83
2019-02-27T07:01:49.309Z,6.00
2019-02-27T07:04:20.774Z,6.77
2019-02-27T07:06:55.198Z,6.40
2019-02-27T07:09:25.314Z,6.30
2019-02-27T07:11:56.730Z,6.47
2019-02-27T07:14:31.281Z,6.67
2019-02-27T07:17:02.759Z,5.87
2019-02-27T07:19:34.225Z,6.50
2019-02-27T07:22:06.359Z,6.07
2019-02-27T07:24:39.288Z,6.60
2019-02-27T07:27:10.748Z,6.40
2019-02-27T07:29:43.006Z,6.10
2019-02-27T07:32:14.629Z,6.20
2019-02-27T07:34:46.729Z,5.90
2019-02-27T07:37:19.329Z,6.87
2019-02-27T07:39:50.821Z,6.43
2019-02-27T07:42:22.844Z,6.57
2019-02-27T07:44:54.379Z,5.83
2019-02-27T07:47:25.829Z,6.00
2019-02-27T07:49:57.309Z,5.43
2019-02-27T07:52:32.108Z,5.40
2019-02-27T07:55:01.895Z,4.73
2019-02-27T07:57:33.388Z,5.00
2019-02-27T08:00:05.260Z,4.47
2019-02-27T08:02:37.762Z,5.00
2019-02-27T08:05:09.591Z,4.03
2019-02-27T08:07:41.088Z,4.53
2019-02-27T08:10:16.224Z,4.10
2019-02-27T08:12:48.013Z,4.30
2019-02-27T08:15:19.756Z,4.40
2019-02-27T08:17:51.398Z,4.23
2019-02-27T08:20:24.896Z,4.43
2019-02-27T08:22:57.742Z,4.00
2019-02-27T08:25:29.412Z,3.80
2019-02-27T08:28:00.857Z,3.73
2019-02-27T08:30:37.245Z,4.07
2019-02-27T08:33:12.681Z,3.80
2019-02-27T08:35:46.415Z,3.50
2019-02-27T08:38:23.660Z,3.37
2019-02-27T08:41:02.141Z,3.90
2019-02-27T08:43:44.479Z,3.80
2019-02-27T08:46:17.508Z,4.40
2019-02-27T08:49:00.985Z,4.90
2019-02-27T08:51:36.396Z,4.43
2019-02-27T08:54:10.585Z,4.97
2019-02-27T08:57:01.730Z,5.37
2019-02-27T08:59:39.892Z,5.60
2019-02-27T09:02:15.101Z,7.30
2019-02-27T09:04:46.597Z,7.87
2019-02-27T09:07:19.871Z,6.87
2019-02-27T09:09:52.295Z,7.13
2019-02-27T09:12:23.950Z,6.60
2019-02-27T09:14:56.033Z,7.23
2019-02-27T09:17:27.910Z,7.60
2019-02-27T09:19:59.473Z,9.20
2019-02-27T09:22:31.229Z,9.40
2019-02-27T09:25:04.923Z,9.33
2019-02-27T09:27:44.905Z,7.77
2019-02-27T09:30:28.763Z,9.07
2019-02-27T09:33:07.637Z,9.90
2019-02-27T09:35:48.882Z,9.63
2019-02-27T09:38:33.731Z,9.03
2019-02-27T09:41:12.400Z,9.73
2019-02-27T09:43:47.204Z,9.63
2019-02-27T09:46:23.560Z,9.67
2019-02-27T09:48:58.025Z,10.30
2019-02-27T09:51:42.202Z,9.80
2019-02-27T09:57:14.409Z,9.90
2019-02-27T09:59:53.695Z,9.57
2019-02-27T10:02:26.866Z,10.67
2019-02-27T10:05:06.509Z,14.40
2019-02-27T10:07:44.055Z,9.93
2019-02-27T10:10:17.426Z,8.90
2019-02-27T10:12:48.945Z,8.77
2019-02-27T10:15:22.526Z,7.70
2019-02-27T10:18:04.287Z,8.20
2019-02-27T10:20:37.331Z,8.37
2019-02-27T10:23:09.813Z,8.97
2019-02-27T10:25:43.502Z,9.67
2019-02-27T10:28:14.422Z,9.30
2019-02-27T10:30:46.994Z,8.40
2019-02-27T10:33:19.121Z,8.70
2019-02-27T10:35:50.823Z,8.80
2019-02-27T10:38:22.938Z,9.03
2019-02-27T10:40:55.114Z,8.83
2019-02-27T10:43:30.068Z,8.20
2019-02-27T10:46:01.518Z,7.53
2019-02-27T10:48:32.899Z,7.50
2019-02-27T10:51:04.751Z,7.70
2019-02-27T10:53:36.217Z,8.13
2019-02-27T10:56:08.010Z,8.60
2019-02-27T10:58:47.656Z,8.43
2019-02-27T11:01:20.898Z,7.60
2019-02-27T11:04:00.488Z,8.90
2019-02-27T11:06:46.610Z,8.90
2019-02-27T11:09:32.341Z,7.10
2019-02-27T11:12:10.082Z,6.40
2019-02-27T11:14:43.140Z,8.00
2019-02-27T11:17:14.625Z,8.00
2019-02-27T11:19:47.467Z,8.50
2019-02-27T11:22:18.967Z,6.60
2019-02-27T11:24:52.387Z,7.27
2019-02-27T11:27:23.627Z,8.30
2019-02-27T11:29:59.630Z,7.50
2019-02-27T11:32:31.832Z,8.33
2019-02-27T11:35:05.883Z,8.13
2019-02-27T11:37:37.660Z,9.00
2019-02-27T11:40:11.826Z,6.80
2019-02-27T11:42:44.241Z,8.07
2019-02-27T11:45:23.751Z,9.43
2019-02-27T11:47:53.156Z,8.50
2019-02-27T11:50:24.677Z,9.00
2019-02-27T11:53:01.848Z,8.07
2019-02-27T11:55:36.035Z,8.90
2019-02-27T11:58:11.335Z,8.83
2019-02-27T12:00:48.637Z,10.87
2019-02-27T12:03:22.588Z,7.40
2019-02-27T12:05:57.690Z,8.33
2019-02-27T12:08:30.923Z,8.20
2019-02-27T12:11:02.932Z,8.00
2019-02-27T12:13:35.651Z,8.37
2019-02-27T12:16:08.090Z,7.30
2019-02-27T12:18:39.737Z,6.97
2019-02-27T12:21:12.700Z,8.27
2019-02-27T12:23:47.612Z,7.73
2019-02-27T12:26:23.022Z,6.03
2019-02-27T12:28:56.843Z,8.23
2019-02-27T12:31:28.366Z,7.43
2019-02-27T12:34:02.585Z,7.30
2019-02-27T12:36:33.765Z,8.13
2019-02-27T12:39:06.542Z,8.43
2019-02-27T12:41:38.221Z,7.23
2019-02-27T12:44:09.696Z,7.77
2019-02-27T12:46:41.141Z,7.60
2019-02-27T12:49:12.639Z,8.03
2019-02-27T12:51:44.108Z,7.73
2019-02-27T12:54:15.544Z,7.30
2019-02-27T12:56:47.504Z,7.70
2019-02-27T12:59:19.857Z,7.60
2019-02-27T13:01:51.874Z,7.60
2019-02-27T13:04:23.423Z,6.97
2019-02-27T13:06:54.951Z,7.50
2019-02-27T13:09:26.401Z,8.53
2019-02-27T13:11:57.874Z,9.80
2019-02-27T13:14:33.043Z,8.93
2019-02-27T13:17:06.964Z,9.30
2019-02-27T13:19:41.442Z,10.17
2019-02-27T13:22:29.260Z,8.90
2019-02-27T13:25:04.354Z,9.37
2019-02-27T13:27:40.389Z,9.00
2019-02-27T13:30:17.920Z,9.20
2019-02-27T13:32:53.820Z,8.63
2019-02-27T13:35:30.742Z,8.30
2019-02-27T13:38:11.566Z,8.63
2019-02-27T13:40:43.032Z,9.10
2019-02-27T13:43:14.601Z,9.50
2019-02-27T13:45:47.694Z,9.23
2019-02-27T13:48:19.631Z,10.00
2019-02-27T13:50:51.277Z,9.90
2019-02-27T13:53:25.831Z,8.60
2019-02-27T13:55:56.111Z,8.87
2019-02-27T13:58:27.654Z,9.13
2019-02-27T14:00:59.153Z,10.00
2019-02-27T14:03:30.699Z,9.57
2019-02-27T14:06:02.156Z,9.30
2019-02-27T14:08:33.696Z,7.53
2019-02-27T14:11:05.065Z,8.73
2019-02-27T14:13:36.621Z,9.70
2019-02-27T14:16:08.485Z,8.37
2019-02-27T14:18:40.109Z,8.70
2019-02-27T14:21:14.860Z,9.40
2019-02-27T14:23:46.952Z,7.77
2019-02-27T14:26:18.967Z,9.40
2019-02-27T14:28:52.147Z,9.77
2019-02-27T14:31:23.576Z,9.43
2019-02-27T14:33:56.516Z,9.40
2019-02-27T14:36:44.930Z,9.67
2019-02-27T14:39:16.102Z,10.10
2019-02-27T14:41:51.221Z,9.03
2019-02-27T14:44:31.120Z,8.70
2019-02-27T14:47:05.116Z,9.10
2019-02-27T14:49:40.251Z,9.10
2019-02-27T14:52:16.680Z,8.80
2019-02-27T14:54:53.442Z,9.50
